sensor_id;sensor_type;location;lat;lon;timestamp;P1;durP1;ratioP1;P2;durP2;ratioP2
37169;SDS011;23062;13.952;100.608;2023-03-29T00:00:45;8.00;;;4.33;;
37169;SDS011;23062;13.952;100.608;2023-03-29T00:05:10;7.00;;;5.00;;
37169;SDS011;23062;13.952;100.608;2023-03-29T00:09:36;7.00;;;5.00;;
37169;SDS011;23062;13.952;100.608;2023-03-29T00:14:01;9.00;;;6.00;;
37169;SDS011;23062;13.952;100.608;2023-03-29T00:18:30;9.00;;;6.00;;
37169;SDS011;23062;13.952;100.608;2023-03-29T00:22:54;8.00;;;6.00;;
37169;SDS011;23062;13.952;100.608;2023-03-29T00:27:20;8.00;;;6.00;;
37169;SDS011;23062;13.952;100.608;2023-03-29T00:31:45;8.00;;;5.00;;
37169;SDS011;23062;13.952;100.608;2023-03-29T00:36:14;8.00;;;6.00;;
37169;SDS011;23062;13.952;100.608;2023-03-29T00:40:42;9.00;;;6.00;;
37169;SDS011;23062;13.952;100.608;2023-03-29T00:49:37;8.00;;;6.00;;
37169;SDS011;23062;13.952;100.608;2023-03-29T00:54:03;8.00;;;5.00;;
37169;SDS011;23062;13.952;100.608;2023-03-29T00:58:34;8.00;;;5.00;;
37169;SDS011;23062;13.952;100.608;2023-03-29T01:03:10;7.00;;;5.00;;
37169;SDS011;23062;13.952;100.608;2023-03-29T01:07:41;9.00;;;6.00;;
37169;SDS011;23062;13.952;100.608;2023-03-29T01:12:32;9.00;;;7.00;;
37169;SDS011;23062;13.952;100.608;2023-03-29T01:16:44;7.00;;;5.00;;
37169;SDS011;23062;13.952;100.608;2023-03-29T01:21:29;9.00;;;6.00;;
37169;SDS011;23062;13.952;100.608;2023-03-29T01:26:11;9.00;;;7.00;;
37169;SDS011;23062;13.952;100.608;2023-03-29T01:30:57;9.00;;;6.00;;
37169;SDS011;23062;13.952;100.608;2023-03-29T01:35:28;9.00;;;6.00;;
37169;SDS011;23062;13.952;100.608;2023-03-29T01:39:57;9.00;;;6.00;;
37169;SDS011;23062;13.952;100.608;2023-03-29T01:44:25;30.00;;;23.00;;
37169;SDS011;23062;13.952;100.608;2023-03-29T01:57:52;19.00;;;14.00;;
37169;SDS011;23062;13.952;100.608;2023-03-29T02:02:21;16.00;;;12.00;;
37169;SDS011;23062;13.952;100.608;2023-03-29T02:06:48;19.00;;;14.00;;
37169;SDS011;23062;13.952;100.608;2023-03-29T02:11:15;21.00;;;15.00;;
37169;SDS011;23062;13.952;100.608;2023-03-29T02:15:42;19.00;;;14.00;;
37169;SDS011;23062;13.952;100.608;2023-03-29T02:20:09;15.00;;;11.00;;
37169;SDS011;23062;13.952;100.608;2023-03-29T02:24:42;14.00;;;11.00;;
37169;SDS011;23062;13.952;100.608;2023-03-29T02:29:09;12.00;;;9.00;;
37169;SDS011;23062;13.952;100.608;2023-03-29T02:33:52;10.00;;;7.00;;
37169;SDS011;23062;13.952;100.608;2023-03-29T02:38:15;9.00;;;6.00;;
37169;SDS011;23062;13.952;100.608;2023-03-29T02:42:42;10.00;;;7.00;;
37169;SDS011;23062;13.952;100.608;2023-03-29T02:47:13;7.00;;;5.00;;
37169;SDS011;23062;13.952;100.608;2023-03-29T02:51:43;11.00;;;8.00;;
37169;SDS011;23062;13.952;100.608;2023-03-29T02:56:12;10.00;;;7.00;;
37169;SDS011;23062;13.952;100.608;2023-03-29T03:00:37;11.00;;;8.00;;
37169;SDS011;23062;13.952;100.608;2023-03-29T03:05:06;11.00;;;7.00;;
37169;SDS011;23062;13.952;100.608;2023-03-29T03:09:31;11.00;;;7.00;;
37169;SDS011;23062;13.952;100.608;2023-03-29T03:14:00;10.00;;;7.00;;
37169;SDS011;23062;13.952;100.608;2023-03-29T03:18:25;10.00;;;7.00;;
37169;SDS011;23062;13.952;100.608;2023-03-29T03:22:50;9.00;;;6.00;;
37169;SDS011;23062;13.952;100.608;2023-03-29T03:27:17;8.00;;;6.00;;
37169;SDS011;23062;13.952;100.608;2023-03-29T03:31:43;8.00;;;6.00;;
37169;SDS011;23062;13.952;100.608;2023-03-29T03:36:08;8.00;;;6.00;;
37169;SDS011;23062;13.952;100.608;2023-03-29T03:40:34;8.00;;;6.00;;
37169;SDS011;23062;13.952;100.608;2023-03-29T03:44:59;10.00;;;6.53;;
37169;SDS011;23062;13.952;100.608;2023-03-29T03:49:24;9.00;;;6.00;;
37169;SDS011;23062;13.952;100.608;2023-03-29T03:53:49;12.00;;;9.00;;
37169;SDS011;23062;13.952;100.608;2023-03-29T03:58:16;7.00;;;5.00;;
37169;SDS011;23062;13.952;100.608;2023-03-29T04:02:41;8.00;;;5.00;;
37169;SDS011;23062;13.952;100.608;2023-03-29T04:07:07;9.00;;;6.00;;
37169;SDS011;23062;13.952;100.608;2023-03-29T04:11:33;10.00;;;7.00;;
37169;SDS011;23062;13.952;100.608;2023-03-29T04:15:58;8.00;;;5.00;;
37169;SDS011;23062;13.952;100.608;2023-03-29T04:20:23;9.00;;;6.00;;
37169;SDS011;23062;13.952;100.608;2023-03-29T04:24:49;10.00;;;7.00;;
37169;SDS011;23062;13.952;100.608;2023-03-29T04:29:14;10.00;;;7.00;;
37169;SDS011;23062;13.952;100.608;2023-03-29T04:33:39;8.00;;;5.00;;
37169;SDS011;23062;13.952;100.608;2023-03-29T04:38:05;6.00;;;3.73;;
37169;SDS011;23062;13.952;100.608;2023-03-29T04:42:31;8.00;;;6.00;;
37169;SDS011;23062;13.952;100.608;2023-03-29T04:47:00;10.00;;;7.00;;
37169;SDS011;23062;13.952;100.608;2023-03-29T04:51:25;9.00;;;6.00;;
37169;SDS011;23062;13.952;100.608;2023-03-29T04:55:50;10.00;;;7.00;;
37169;SDS011;23062;13.952;100.608;2023-03-29T05:00:17;9.00;;;6.00;;
37169;SDS011;23062;13.952;100.608;2023-03-29T05:04:43;10.00;;;7.00;;
37169;SDS011;23062;13.952;100.608;2023-03-29T05:09:09;11.00;;;8.00;;
37169;SDS011;23062;13.952;100.608;2023-03-29T05:13:35;11.00;;;7.00;;
37169;SDS011;23062;13.952;100.608;2023-03-29T05:18:00;8.00;;;6.00;;
37169;SDS011;23062;13.952;100.608;2023-03-29T05:22:25;8.00;;;6.00;;
37169;SDS011;23062;13.952;100.608;2023-03-29T05:26:56;8.00;;;6.00;;
37169;SDS011;23062;13.952;100.608;2023-03-29T05:31:21;10.00;;;7.00;;
37169;SDS011;23062;13.952;100.608;2023-03-29T05:35:46;9.00;;;6.00;;
37169;SDS011;23062;13.952;100.608;2023-03-29T05:40:12;8.00;;;6.00;;
37169;SDS011;23062;13.952;100.608;2023-03-29T05:44:36;9.00;;;7.00;;
37169;SDS011;23062;13.952;100.608;2023-03-29T05:49:02;7.00;;;5.00;;
37169;SDS011;23062;13.952;100.608;2023-03-29T05:53:27;7.00;;;5.00;;
37169;SDS011;23062;13.952;100.608;2023-03-29T05:57:53;8.00;;;5.00;;
37169;SDS011;23062;13.952;100.608;2023-03-29T06:02:18;8.00;;;6.00;;
37169;SDS011;23062;13.952;100.608;2023-03-29T06:06:43;8.00;;;5.00;;
37169;SDS011;23062;13.952;100.608;2023-03-29T06:11:10;9.00;;;6.00;;
37169;SDS011;23062;13.952;100.608;2023-03-29T06:15:37;7.00;;;5.00;;
37169;SDS011;23062;13.952;100.608;2023-03-29T06:20:03;8.00;;;5.00;;
37169;SDS011;23062;13.952;100.608;2023-03-29T06:24:31;11.00;;;7.00;;
37169;SDS011;23062;13.952;100.608;2023-03-29T06:28:57;9.00;;;7.00;;
37169;SDS011;23062;13.952;100.608;2023-03-29T06:33:25;10.00;;;7.00;;
37169;SDS011;23062;13.952;100.608;2023-03-29T06:37:53;12.00;;;9.00;;
37169;SDS011;23062;13.952;100.608;2023-03-29T06:42:19;11.00;;;7.47;;
37169;SDS011;23062;13.952;100.608;2023-03-29T06:46:46;13.00;;;9.00;;
37169;SDS011;23062;13.952;100.608;2023-03-29T06:51:12;9.00;;;7.00;;
37169;SDS011;23062;13.952;100.608;2023-03-29T06:55:36;10.00;;;7.00;;
37169;SDS011;23062;13.952;100.608;2023-03-29T07:00:06;9.00;;;7.00;;
37169;SDS011;23062;13.952;100.608;2023-03-29T07:04:57;12.00;;;9.00;;
37169;SDS011;23062;13.952;100.608;2023-03-29T07:09:22;13.00;;;9.00;;
37169;SDS011;23062;13.952;100.608;2023-03-29T07:13:50;12.00;;;8.00;;
37169;SDS011;23062;13.952;100.608;2023-03-29T07:18:15;11.00;;;8.00;;
37169;SDS011;23062;13.952;100.608;2023-03-29T07:22:40;10.00;;;7.00;;
37169;SDS011;23062;13.952;100.608;2023-03-29T07:27:07;11.00;;;8.00;;
37169;SDS011;23062;13.952;100.608;2023-03-29T07:31:34;11.00;;;8.00;;
37169;SDS011;23062;13.952;100.608;2023-03-29T07:36:01;9.00;;;7.00;;
37169;SDS011;23062;13.952;100.608;2023-03-29T07:40:30;12.00;;;8.00;;
37169;SDS011;23062;13.952;100.608;2023-03-29T07:44:55;14.00;;;10.00;;
37169;SDS011;23062;13.952;100.608;2023-03-29T07:49:21;13.00;;;9.00;;
37169;SDS011;23062;13.952;100.608;2023-03-29T07:53:49;15.00;;;11.00;;
37169;SDS011;23062;13.952;100.608;2023-03-29T07:58:15;13.00;;;9.00;;
37169;SDS011;23062;13.952;100.608;2023-03-29T08:02:43;13.00;;;9.00;;
37169;SDS011;23062;13.952;100.608;2023-03-29T08:07:09;12.00;;;9.00;;
37169;SDS011;23062;13.952;100.608;2023-03-29T08:11:35;15.00;;;10.00;;
37169;SDS011;23062;13.952;100.608;2023-03-29T08:16:01;12.00;;;9.00;;
37169;SDS011;23062;13.952;100.608;2023-03-29T08:20:26;14.00;;;10.00;;
37169;SDS011;23062;13.952;100.608;2023-03-29T08:24:52;16.00;;;12.00;;
37169;SDS011;23062;13.952;100.608;2023-03-29T08:29:17;16.00;;;12.00;;
37169;SDS011;23062;13.952;100.608;2023-03-29T08:33:43;14.00;;;10.00;;
37169;SDS011;23062;13.952;100.608;2023-03-29T08:38:12;17.00;;;12.00;;
37169;SDS011;23062;13.952;100.608;2023-03-29T08:42:40;15.00;;;11.00;;
37169;SDS011;23062;13.952;100.608;2023-03-29T08:51:46;13.00;;;10.00;;
37169;SDS011;23062;13.952;100.608;2023-03-29T08:56:14;17.00;;;13.00;;
37169;SDS011;23062;13.952;100.608;2023-03-29T09:00:49;15.00;;;11.00;;
37169;SDS011;23062;13.952;100.608;2023-03-29T09:05:28;16.00;;;12.00;;
37169;SDS011;23062;13.952;100.608;2023-03-29T09:09:52;14.00;;;10.00;;
37169;SDS011;23062;13.952;100.608;2023-03-29T09:24:09;15.00;;;11.00;;
37169;SDS011;23062;13.952;100.608;2023-03-29T09:28:57;17.00;;;13.00;;
37169;SDS011;23062;13.952;100.608;2023-03-29T09:33:40;15.00;;;10.00;;
37169;SDS011;23062;13.952;100.608;2023-03-29T09:38:22;17.00;;;13.00;;
37169;SDS011;23062;13.952;100.608;2023-03-29T09:42:48;14.00;;;10.00;;
37169;SDS011;23062;13.952;100.608;2023-03-29T10:06:08;16.00;;;12.00;;
37169;SDS011;23062;13.952;100.608;2023-03-29T10:10:35;13.00;;;9.00;;
37169;SDS011;23062;13.952;100.608;2023-03-29T10:15:01;13.00;;;10.00;;
37169;SDS011;23062;13.952;100.608;2023-03-29T10:19:31;16.00;;;12.00;;
37169;SDS011;23062;13.952;100.608;2023-03-29T10:23:57;14.00;;;10.00;;
37169;SDS011;23062;13.952;100.608;2023-03-29T10:28:23;13.00;;;9.00;;
37169;SDS011;23062;13.952;100.608;2023-03-29T10:32:57;12.00;;;9.00;;
37169;SDS011;23062;13.952;100.608;2023-03-29T10:37:20;13.00;;;9.00;;
37169;SDS011;23062;13.952;100.608;2023-03-29T10:41:48;13.00;;;9.00;;
37169;SDS011;23062;13.952;100.608;2023-03-29T10:46:19;15.00;;;11.00;;
37169;SDS011;23062;13.952;100.608;2023-03-29T10:50:50;13.00;;;9.00;;
37169;SDS011;23062;13.952;100.608;2023-03-29T10:55:15;13.00;;;9.00;;
37169;SDS011;23062;13.952;100.608;2023-03-29T10:59:45;10.00;;;7.00;;
37169;SDS011;23062;13.952;100.608;2023-03-29T11:04:19;13.00;;;9.00;;
37169;SDS011;23062;13.952;100.608;2023-03-29T11:23:11;12.00;;;9.00;;
37169;SDS011;23062;13.952;100.608;2023-03-29T11:41:36;14.00;;;10.00;;
37169;SDS011;23062;13.952;100.608;2023-03-29T11:46:01;13.00;;;9.00;;
37169;SDS011;23062;13.952;100.608;2023-03-29T11:50:29;11.00;;;8.00;;
37169;SDS011;23062;13.952;100.608;2023-03-29T11:55:17;11.00;;;8.00;;
37169;SDS011;23062;13.952;100.608;2023-03-29T12:04:40;13.00;;;9.00;;
37169;SDS011;23062;13.952;100.608;2023-03-29T12:18:46;12.00;;;8.00;;
37169;SDS011;23062;13.952;100.608;2023-03-29T12:23:13;10.00;;;6.07;;
37169;SDS011;23062;13.952;100.608;2023-03-29T12:41:37;20.00;;;15.00;;
37169;SDS011;23062;13.952;100.608;2023-03-29T12:46:06;25.00;;;18.00;;
37169;SDS011;23062;13.952;100.608;2023-03-29T12:50:34;22.00;;;17.00;;
37169;SDS011;23062;13.952;100.608;2023-03-29T12:59:46;21.00;;;16.00;;
37169;SDS011;23062;13.952;100.608;2023-03-29T13:04:13;25.00;;;18.00;;
37169;SDS011;23062;13.952;100.608;2023-03-29T13:08:43;23.00;;;17.00;;
37169;SDS011;23062;13.952;100.608;2023-03-29T13:13:13;23.00;;;17.00;;
37169;SDS011;23062;13.952;100.608;2023-03-29T13:27:30;23.00;;;16.00;;
37169;SDS011;23062;13.952;100.608;2023-03-29T13:36:55;23.00;;;16.00;;
37169;SDS011;23062;13.952;100.608;2023-03-29T13:46:23;39.00;;;30.00;;
37169;SDS011;23062;13.952;100.608;2023-03-29T13:55:26;40.00;;;30.00;;
37169;SDS011;23062;13.952;100.608;2023-03-29T13:59:50;38.00;;;28.00;;
37169;SDS011;23062;13.952;100.608;2023-03-29T14:04:18;35.00;;;26.00;;
37169;SDS011;23062;13.952;100.608;2023-03-29T14:08:47;41.00;;;30.00;;
37169;SDS011;23062;13.952;100.608;2023-03-29T14:13:15;43.00;;;33.00;;
37169;SDS011;23062;13.952;100.608;2023-03-29T14:17:41;50.00;;;37.00;;
37169;SDS011;23062;13.952;100.608;2023-03-29T14:22:09;51.00;;;39.00;;
37169;SDS011;23062;13.952;100.608;2023-03-29T14:26:36;56.00;;;41.00;;
37169;SDS011;23062;13.952;100.608;2023-03-29T14:31:02;62.00;;;47.00;;
37169;SDS011;23062;13.952;100.608;2023-03-29T14:35:32;58.00;;;46.00;;
37169;SDS011;23062;13.952;100.608;2023-03-29T14:39:58;92.00;;;71.00;;
37169;SDS011;23062;13.952;100.608;2023-03-29T14:44:25;75.00;;;55.00;;
37169;SDS011;23062;13.952;100.608;2023-03-29T14:48:52;70.00;;;56.00;;
37169;SDS011;23062;13.952;100.608;2023-03-29T14:53:21;71.00;;;54.00;;
37169;SDS011;23062;13.952;100.608;2023-03-29T14:57:47;67.00;;;53.00;;
37169;SDS011;23062;13.952;100.608;2023-03-29T15:02:23;67.00;;;51.00;;
37169;SDS011;23062;13.952;100.608;2023-03-29T15:06:50;87.00;;;64.00;;
37169;SDS011;23062;13.952;100.608;2023-03-29T15:11:19;77.00;;;57.00;;
37169;SDS011;23062;13.952;100.608;2023-03-29T15:15:52;60.00;;;46.00;;
37169;SDS011;23062;13.952;100.608;2023-03-29T15:20:25;68.00;;;50.00;;
37169;SDS011;23062;13.952;100.608;2023-03-29T15:24:54;68.00;;;53.00;;
37169;SDS011;23062;13.952;100.608;2023-03-29T15:29:22;73.00;;;55.00;;
37169;SDS011;23062;13.952;100.608;2023-03-29T15:33:49;72.00;;;53.00;;
37169;SDS011;23062;13.952;100.608;2023-03-29T15:38:28;72.00;;;53.00;;
37169;SDS011;23062;13.952;100.608;2023-03-29T15:42:53;69.00;;;52.00;;
37169;SDS011;23062;13.952;100.608;2023-03-29T15:47:19;67.00;;;51.00;;
37169;SDS011;23062;13.952;100.608;2023-03-29T15:51:48;66.00;;;51.00;;
37169;SDS011;23062;13.952;100.608;2023-03-29T15:56:16;61.00;;;45.00;;
37169;SDS011;23062;13.952;100.608;2023-03-29T16:00:46;62.00;;;46.00;;
37169;SDS011;23062;13.952;100.608;2023-03-29T16:05:12;65.00;;;48.00;;
37169;SDS011;23062;13.952;100.608;2023-03-29T16:09:38;60.00;;;45.00;;
37169;SDS011;23062;13.952;100.608;2023-03-29T16:18:38;61.00;;;46.00;;
37169;SDS011;23062;13.952;100.608;2023-03-29T16:23:07;62.00;;;46.00;;
37169;SDS011;23062;13.952;100.608;2023-03-29T16:27:33;56.00;;;41.00;;
37169;SDS011;23062;13.952;100.608;2023-03-29T16:31:58;58.00;;;43.00;;
37169;SDS011;23062;13.952;100.608;2023-03-29T16:36:24;56.00;;;41.00;;
37169;SDS011;23062;13.952;100.608;2023-03-29T16:40:57;54.00;;;42.00;;
37169;SDS011;23062;13.952;100.608;2023-03-29T16:45:22;48.00;;;38.00;;
37169;SDS011;23062;13.952;100.608;2023-03-29T16:49:51;50.00;;;39.00;;
37169;SDS011;23062;13.952;100.608;2023-03-29T16:54:17;47.00;;;37.00;;
37169;SDS011;23062;13.952;100.608;2023-03-29T16:58:42;50.00;;;38.00;;
37169;SDS011;23062;13.952;100.608;2023-03-29T17:03:07;47.00;;;37.00;;
37169;SDS011;23062;13.952;100.608;2023-03-29T17:07:39;48.00;;;37.00;;
37169;SDS011;23062;13.952;100.608;2023-03-29T17:12:04;49.00;;;38.00;;
37169;SDS011;23062;13.952;100.608;2023-03-29T17:16:33;52.00;;;40.00;;
37169;SDS011;23062;13.952;100.608;2023-03-29T17:20:58;51.00;;;39.00;;
37169;SDS011;23062;13.952;100.608;2023-03-29T17:25:24;48.00;;;38.00;;
37169;SDS011;23062;13.952;100.608;2023-03-29T17:29:53;48.00;;;35.00;;
37169;SDS011;23062;13.952;100.608;2023-03-29T17:34:19;43.00;;;32.00;;
37169;SDS011;23062;13.952;100.608;2023-03-29T17:38:44;47.00;;;34.00;;
37169;SDS011;23062;13.952;100.608;2023-03-29T17:43:10;46.00;;;35.00;;
37169;SDS011;23062;13.952;100.608;2023-03-29T17:47:35;42.00;;;31.00;;
37169;SDS011;23062;13.952;100.608;2023-03-29T17:52:01;40.00;;;30.00;;
37169;SDS011;23062;13.952;100.608;2023-03-29T17:56:29;39.00;;;29.00;;
37169;SDS011;23062;13.952;100.608;2023-03-29T18:00:56;43.00;;;32.00;;
37169;SDS011;23062;13.952;100.608;2023-03-29T18:05:22;38.00;;;30.00;;
37169;SDS011;23062;13.952;100.608;2023-03-29T18:09:51;38.00;;;29.00;;
37169;SDS011;23062;13.952;100.608;2023-03-29T18:14:16;37.00;;;28.00;;
37169;SDS011;23062;13.952;100.608;2023-03-29T18:18:43;37.00;;;28.00;;
37169;SDS011;23062;13.952;100.608;2023-03-29T18:23:11;39.00;;;29.00;;
37169;SDS011;23062;13.952;100.608;2023-03-29T18:27:37;31.00;;;23.00;;
37169;SDS011;23062;13.952;100.608;2023-03-29T18:32:02;33.00;;;25.00;;
37169;SDS011;23062;13.952;100.608;2023-03-29T18:36:28;33.00;;;24.00;;
37169;SDS011;23062;13.952;100.608;2023-03-29T18:40:53;29.00;;;23.00;;
37169;SDS011;23062;13.952;100.608;2023-03-29T18:45:19;31.00;;;23.00;;
37169;SDS011;23062;13.952;100.608;2023-03-29T18:49:44;29.00;;;22.00;;
37169;SDS011;23062;13.952;100.608;2023-03-29T18:54:12;30.00;;;23.00;;
37169;SDS011;23062;13.952;100.608;2023-03-29T18:58:38;28.00;;;22.00;;
37169;SDS011;23062;13.952;100.608;2023-03-29T19:03:06;29.00;;;22.00;;
37169;SDS011;23062;13.952;100.608;2023-03-29T19:07:51;29.00;;;21.00;;
37169;SDS011;23062;13.952;100.608;2023-03-29T19:12:16;26.00;;;19.00;;
37169;SDS011;23062;13.952;100.608;2023-03-29T19:16:44;28.00;;;21.00;;
37169;SDS011;23062;13.952;100.608;2023-03-29T19:21:15;28.00;;;20.00;;
37169;SDS011;23062;13.952;100.608;2023-03-29T19:25:50;24.00;;;18.00;;
37169;SDS011;23062;13.952;100.608;2023-03-29T19:30:16;26.00;;;20.00;;
37169;SDS011;23062;13.952;100.608;2023-03-29T19:34:46;27.00;;;20.00;;
37169;SDS011;23062;13.952;100.608;2023-03-29T19:39:14;26.00;;;19.00;;
37169;SDS011;23062;13.952;100.608;2023-03-29T19:43:39;28.00;;;19.60;;
37169;SDS011;23062;13.952;100.608;2023-03-29T19:48:04;29.00;;;19.60;;
37169;SDS011;23062;13.952;100.608;2023-03-29T19:52:30;26.00;;;19.00;;
37169;SDS011;23062;13.952;100.608;2023-03-29T19:56:56;27.00;;;21.00;;
37169;SDS011;23062;13.952;100.608;2023-03-29T20:01:23;24.00;;;19.00;;
37169;SDS011;23062;13.952;100.608;2023-03-29T20:05:49;27.00;;;20.00;;
37169;SDS011;23062;13.952;100.608;2023-03-29T20:10:14;30.00;;;23.00;;
37169;SDS011;23062;13.952;100.608;2023-03-29T20:14:43;28.00;;;20.00;;
37169;SDS011;23062;13.952;100.608;2023-03-29T20:19:08;25.00;;;19.00;;
37169;SDS011;23062;13.952;100.608;2023-03-29T20:23:38;27.00;;;19.00;;
37169;SDS011;23062;13.952;100.608;2023-03-29T20:28:08;22.00;;;17.00;;
37169;SDS011;23062;13.952;100.608;2023-03-29T20:32:34;20.00;;;16.00;;
37169;SDS011;23062;13.952;100.608;2023-03-29T20:36:59;21.00;;;16.00;;
37169;SDS011;23062;13.952;100.608;2023-03-29T20:41:25;23.00;;;17.00;;
37169;SDS011;23062;13.952;100.608;2023-03-29T20:45:51;21.00;;;15.00;;
37169;SDS011;23062;13.952;100.608;2023-03-29T20:50:17;20.00;;;14.00;;
37169;SDS011;23062;13.952;100.608;2023-03-29T20:54:42;19.00;;;14.00;;
37169;SDS011;23062;13.952;100.608;2023-03-29T20:59:09;17.00;;;13.00;;
37169;SDS011;23062;13.952;100.608;2023-03-29T21:03:41;19.00;;;13.00;;
37169;SDS011;23062;13.952;100.608;2023-03-29T21:08:06;23.00;;;16.00;;
37169;SDS011;23062;13.952;100.608;2023-03-29T21:12:32;46.00;;;34.00;;
37169;SDS011;23062;13.952;100.608;2023-03-29T21:16:58;19.00;;;15.00;;
37169;SDS011;23062;13.952;100.608;2023-03-29T21:21:26;24.00;;;17.00;;
37169;SDS011;23062;13.952;100.608;2023-03-29T21:25:52;27.00;;;20.00;;
37169;SDS011;23062;13.952;100.608;2023-03-29T21:30:32;26.00;;;20.00;;
37169;SDS011;23062;13.952;100.608;2023-03-29T21:35:11;23.00;;;17.00;;
37169;SDS011;23062;13.952;100.608;2023-03-29T21:39:34;35.00;;;27.00;;
37169;SDS011;23062;13.952;100.608;2023-03-29T21:44:03;23.00;;;18.00;;
37169;SDS011;23062;13.952;100.608;2023-03-29T21:48:28;24.00;;;18.00;;
37169;SDS011;23062;13.952;100.608;2023-03-29T21:52:53;24.00;;;17.00;;
37169;SDS011;23062;13.952;100.608;2023-03-29T21:57:18;20.00;;;16.00;;
37169;SDS011;23062;13.952;100.608;2023-03-29T22:01:46;23.00;;;16.00;;
37169;SDS011;23062;13.952;100.608;2023-03-29T22:06:12;21.00;;;16.00;;
37169;SDS011;23062;13.952;100.608;2023-03-29T22:10:38;19.00;;;14.00;;
37169;SDS011;23062;13.952;100.608;2023-03-29T22:15:07;21.00;;;15.00;;
37169;SDS011;23062;13.952;100.608;2023-03-29T22:19:34;17.00;;;13.00;;
37169;SDS011;23062;13.952;100.608;2023-03-29T22:24:02;20.00;;;15.00;;
37169;SDS011;23062;13.952;100.608;2023-03-29T22:28:27;20.00;;;14.00;;
37169;SDS011;23062;13.952;100.608;2023-03-29T22:32:52;21.00;;;15.00;;
37169;SDS011;23062;13.952;100.608;2023-03-29T22:37:20;21.00;;;15.00;;
37169;SDS011;23062;13.952;100.608;2023-03-29T22:41:45;21.00;;;16.00;;
37169;SDS011;23062;13.952;100.608;2023-03-29T22:46:12;23.00;;;17.00;;
37169;SDS011;23062;13.952;100.608;2023-03-29T22:50:37;21.00;;;16.00;;
37169;SDS011;23062;13.952;100.608;2023-03-29T22:55:09;22.00;;;16.00;;
37169;SDS011;23062;13.952;100.608;2023-03-29T22:59:35;23.00;;;17.00;;
37169;SDS011;23062;13.952;100.608;2023-03-29T23:04:01;24.00;;;17.00;;
37169;SDS011;23062;13.952;100.608;2023-03-29T23:08:26;22.00;;;16.00;;
37169;SDS011;23062;13.952;100.608;2023-03-29T23:12:52;22.00;;;17.00;;
37169;SDS011;23062;13.952;100.608;2023-03-29T23:17:26;22.00;;;16.00;;
37169;SDS011;23062;13.952;100.608;2023-03-29T23:21:52;21.00;;;15.00;;
37169;SDS011;23062;13.952;100.608;2023-03-29T23:26:17;21.00;;;16.00;;
37169;SDS011;23062;13.952;100.608;2023-03-29T23:31:05;22.00;;;16.00;;
37169;SDS011;23062;13.952;100.608;2023-03-29T23:35:33;19.00;;;15.00;;
37169;SDS011;23062;13.952;100.608;2023-03-29T23:39:58;22.00;;;16.00;;
37169;SDS011;23062;13.952;100.608;2023-03-29T23:44:29;17.00;;;13.00;;
37169;SDS011;23062;13.952;100.608;2023-03-29T23:48:54;19.00;;;15.00;;
37169;SDS011;23062;13.952;100.608;2023-03-29T23:53:23;19.00;;;14.00;;
37169;SDS011;23062;13.952;100.608;2023-03-29T23:57:56;21.00;;;16.00;;
